Terminal Aerodrome Forecast
Issued by NWS

Home | Current Version | Previous Version | Text Only | Print | Product List | Glossary On
Versions: 1 2 3 4 5 6 7 8 9 10 11 12 13 14 15 16 17 18 19 20 21 22 23 24 25 26 27 28
000
FTUS43 KDVN 241130
TAFBRL
TAF
KBRL 241130Z 2412/2512 13007KT P6SM OVC070
     FM242200 14012KT P6SM VCSH OVC050
     FM250200 13013KT 5SM -SHRA BKN035 OVC050
     FM250600 12012KT 4SM -RA OVC015
     FM250900 10011KT 3SM -RA BR BKN008 OVC012=

USA.gov is the U.S. government's official web portal to all federal, state and local government web resources and services.